sensor_id;sensor_type;location;lat;lon;timestamp;temperature;humidity
63409;DHT22;49544;50.872;4.348;2022-08-07T00:01:58;17.30;81.70
63409;DHT22;49544;50.872;4.348;2022-08-07T00:04:23;17.30;82.20
63409;DHT22;49544;50.872;4.348;2022-08-07T00:06:52;17.30;82.30
63409;DHT22;49544;50.872;4.348;2022-08-07T00:09:23;17.40;82.20
63409;DHT22;49544;50.872;4.348;2022-08-07T00:11:52;17.50;82.00
63409;DHT22;49544;50.872;4.348;2022-08-07T00:14:23;17.40;82.20
63409;DHT22;49544;50.872;4.348;2022-08-07T00:17:00;17.30;82.70
63409;DHT22;49544;50.872;4.348;2022-08-07T00:19:30;17.20;83.00
63409;DHT22;49544;50.872;4.348;2022-08-07T00:21:59;17.40;82.90
63409;DHT22;49544;50.872;4.348;2022-08-07T00:24:28;17.40;83.10
63409;DHT22;49544;50.872;4.348;2022-08-07T00:26:56;17.40;83.60
63409;DHT22;49544;50.872;4.348;2022-08-07T00:29:25;17.20;84.40
63409;DHT22;49544;50.872;4.348;2022-08-07T00:31:58;17.20;85.00
63409;DHT22;49544;50.872;4.348;2022-08-07T00:34:26;17.00;85.50
63409;DHT22;49544;50.872;4.348;2022-08-07T00:36:55;16.90;86.30
63409;DHT22;49544;50.872;4.348;2022-08-07T00:39:26;16.90;87.30
63409;DHT22;49544;50.872;4.348;2022-08-07T00:41:58;17.00;86.50
63409;DHT22;49544;50.872;4.348;2022-08-07T00:44:27;17.00;87.00
63409;DHT22;49544;50.872;4.348;2022-08-07T00:46:56;17.00;87.00
63409;DHT22;49544;50.872;4.348;2022-08-07T00:49:28;17.00;86.80
63409;DHT22;49544;50.872;4.348;2022-08-07T00:52:00;17.00;87.10
63409;DHT22;49544;50.872;4.348;2022-08-07T00:54:38;17.00;87.50
63409;DHT22;49544;50.872;4.348;2022-08-07T00:57:09;17.00;87.30
63409;DHT22;49544;50.872;4.348;2022-08-07T00:59:36;17.00;87.40
63409;DHT22;49544;50.872;4.348;2022-08-07T01:02:06;16.90;87.70
63409;DHT22;49544;50.872;4.348;2022-08-07T01:04:38;17.00;87.60
63409;DHT22;49544;50.872;4.348;2022-08-07T01:07:07;17.00;87.80
63409;DHT22;49544;50.872;4.348;2022-08-07T01:09:37;16.90;88.00
63409;DHT22;49544;50.872;4.348;2022-08-07T01:12:11;17.00;88.10
63409;DHT22;49544;50.872;4.348;2022-08-07T01:14:43;17.00;88.00
63409;DHT22;49544;50.872;4.348;2022-08-07T01:17:13;17.10;87.70
63409;DHT22;49544;50.872;4.348;2022-08-07T01:19:40;17.10;87.70
63409;DHT22;49544;50.872;4.348;2022-08-07T01:22:12;16.90;88.50
63409;DHT22;49544;50.872;4.348;2022-08-07T01:24:46;16.90;88.60
63409;DHT22;49544;50.872;4.348;2022-08-07T01:27:14;16.90;89.10
63409;DHT22;49544;50.872;4.348;2022-08-07T01:29:46;16.80;89.40
63409;DHT22;49544;50.872;4.348;2022-08-07T01:32:14;16.70;89.80
63409;DHT22;49544;50.872;4.348;2022-08-07T01:34:43;16.80;89.70
63409;DHT22;49544;50.872;4.348;2022-08-07T01:37:15;17.00;89.30
63409;DHT22;49544;50.872;4.348;2022-08-07T01:39:45;17.00;88.80
63409;DHT22;49544;50.872;4.348;2022-08-07T01:42:15;17.00;89.20
63409;DHT22;49544;50.872;4.348;2022-08-07T01:44:44;16.90;89.40
63409;DHT22;49544;50.872;4.348;2022-08-07T01:47:19;16.90;89.60
63409;DHT22;49544;50.872;4.348;2022-08-07T01:49:49;16.80;90.00
63409;DHT22;49544;50.872;4.348;2022-08-07T01:52:16;17.00;89.80
63409;DHT22;49544;50.872;4.348;2022-08-07T01:54:46;16.80;90.00
63409;DHT22;49544;50.872;4.348;2022-08-07T01:57:24;16.90;90.00
63409;DHT22;49544;50.872;4.348;2022-08-07T02:00:10;16.90;90.10
63409;DHT22;49544;50.872;4.348;2022-08-07T02:05:51;17.20;89.10
63409;DHT22;49544;50.872;4.348;2022-08-07T02:08:25;17.20;88.80
63409;DHT22;49544;50.872;4.348;2022-08-07T02:10:52;17.20;89.40
63409;DHT22;49544;50.872;4.348;2022-08-07T02:13:26;17.20;89.20
63409;DHT22;49544;50.872;4.348;2022-08-07T02:16:01;17.20;89.10
63409;DHT22;49544;50.872;4.348;2022-08-07T02:18:29;17.30;88.70
63409;DHT22;49544;50.872;4.348;2022-08-07T02:21:02;17.20;89.20
63409;DHT22;49544;50.872;4.348;2022-08-07T02:23:29;17.10;89.50
63409;DHT22;49544;50.872;4.348;2022-08-07T02:26:01;16.90;90.00
63409;DHT22;49544;50.872;4.348;2022-08-07T02:28:35;16.90;90.20
63409;DHT22;49544;50.872;4.348;2022-08-07T02:31:07;16.90;90.30
63409;DHT22;49544;50.872;4.348;2022-08-07T02:33:35;16.80;90.40
63409;DHT22;49544;50.872;4.348;2022-08-07T02:36:05;16.80;90.30
63409;DHT22;49544;50.872;4.348;2022-08-07T02:38:37;17.00;90.20
63409;DHT22;49544;50.872;4.348;2022-08-07T02:41:03;17.10;90.00
63409;DHT22;49544;50.872;4.348;2022-08-07T02:43:39;17.10;90.00
63409;DHT22;49544;50.872;4.348;2022-08-07T02:46:09;16.80;90.30
63409;DHT22;49544;50.872;4.348;2022-08-07T02:48:41;16.80;90.50
63409;DHT22;49544;50.872;4.348;2022-08-07T02:51:18;16.60;90.80
63409;DHT22;49544;50.872;4.348;2022-08-07T02:53:51;16.50;91.00
63409;DHT22;49544;50.872;4.348;2022-08-07T02:56:20;16.60;90.90
63409;DHT22;49544;50.872;4.348;2022-08-07T02:58:48;16.70;90.70
63409;DHT22;49544;50.872;4.348;2022-08-07T03:01:20;16.70;90.80
63409;DHT22;49544;50.872;4.348;2022-08-07T03:03:51;16.70;90.80
63409;DHT22;49544;50.872;4.348;2022-08-07T03:06:24;16.80;90.80
63409;DHT22;49544;50.872;4.348;2022-08-07T03:08:54;16.80;90.60
63409;DHT22;49544;50.872;4.348;2022-08-07T03:11:23;16.90;90.50
63409;DHT22;49544;50.872;4.348;2022-08-07T03:13:49;17.00;90.40
63409;DHT22;49544;50.872;4.348;2022-08-07T03:16:19;16.70;90.80
63409;DHT22;49544;50.872;4.348;2022-08-07T03:18:47;16.70;91.00
63409;DHT22;49544;50.872;4.348;2022-08-07T03:21:16;16.50;91.60
63409;DHT22;49544;50.872;4.348;2022-08-07T03:23:45;16.50;91.50
63409;DHT22;49544;50.872;4.348;2022-08-07T03:26:17;16.50;91.40
63409;DHT22;49544;50.872;4.348;2022-08-07T03:28:45;16.70;91.10
63409;DHT22;49544;50.872;4.348;2022-08-07T03:31:14;16.90;90.90
63409;DHT22;49544;50.872;4.348;2022-08-07T03:33:50;17.00;90.70
63409;DHT22;49544;50.872;4.348;2022-08-07T03:36:23;17.00;90.60
63409;DHT22;49544;50.872;4.348;2022-08-07T03:39:01;16.90;90.90
63409;DHT22;49544;50.872;4.348;2022-08-07T03:41:31;16.90;90.90
63409;DHT22;49544;50.872;4.348;2022-08-07T03:43:58;16.70;91.30
63409;DHT22;49544;50.872;4.348;2022-08-07T03:46:29;16.60;91.40
63409;DHT22;49544;50.872;4.348;2022-08-07T03:49:01;16.70;91.50
63409;DHT22;49544;50.872;4.348;2022-08-07T03:51:32;16.50;91.70
63409;DHT22;49544;50.872;4.348;2022-08-07T03:54:00;16.50;91.90
63409;DHT22;49544;50.872;4.348;2022-08-07T03:56:32;16.50;91.90
63409;DHT22;49544;50.872;4.348;2022-08-07T03:59:06;16.10;92.50
63409;DHT22;49544;50.872;4.348;2022-08-07T04:01:45;16.00;92.80
63409;DHT22;49544;50.872;4.348;2022-08-07T04:04:19;15.70;93.20
63409;DHT22;49544;50.872;4.348;2022-08-07T04:06:48;15.70;93.30
63409;DHT22;49544;50.872;4.348;2022-08-07T04:09:22;15.40;93.90
63409;DHT22;49544;50.872;4.348;2022-08-07T04:11:52;15.20;94.30
63409;DHT22;49544;50.872;4.348;2022-08-07T04:14:19;15.20;94.40
63409;DHT22;49544;50.872;4.348;2022-08-07T04:16:47;15.20;94.40
63409;DHT22;49544;50.872;4.348;2022-08-07T04:19:19;15.10;94.70
63409;DHT22;49544;50.872;4.348;2022-08-07T04:21:53;15.20;94.60
63409;DHT22;49544;50.872;4.348;2022-08-07T04:24:22;15.30;94.40
63409;DHT22;49544;50.872;4.348;2022-08-07T04:26:48;15.40;94.20
63409;DHT22;49544;50.872;4.348;2022-08-07T04:29:21;15.50;93.90
63409;DHT22;49544;50.872;4.348;2022-08-07T04:31:51;15.70;93.60
63409;DHT22;49544;50.872;4.348;2022-08-07T04:34:20;15.70;93.70
63409;DHT22;49544;50.872;4.348;2022-08-07T04:36:59;15.80;93.40
63409;DHT22;49544;50.872;4.348;2022-08-07T04:39:28;15.80;93.30
63409;DHT22;49544;50.872;4.348;2022-08-07T04:42:02;15.80;93.50
63409;DHT22;49544;50.872;4.348;2022-08-07T04:44:31;16.00;93.00
63409;DHT22;49544;50.872;4.348;2022-08-07T04:47:22;16.10;92.90
63409;DHT22;49544;50.872;4.348;2022-08-07T04:50:05;15.90;93.20
63409;DHT22;49544;50.872;4.348;2022-08-07T04:52:52;15.90;93.40
63409;DHT22;49544;50.872;4.348;2022-08-07T04:55:31;15.90;93.60
63409;DHT22;49544;50.872;4.348;2022-08-07T04:58:18;15.90;93.50
63409;DHT22;49544;50.872;4.348;2022-08-07T05:06:33;16.00;93.40
63409;DHT22;49544;50.872;4.348;2022-08-07T05:11:47;16.00;93.40
63409;DHT22;49544;50.872;4.348;2022-08-07T05:14:35;16.00;93.50
63409;DHT22;49544;50.872;4.348;2022-08-07T05:17:03;16.00;93.50
63409;DHT22;49544;50.872;4.348;2022-08-07T05:19:42;16.00;93.40
63409;DHT22;49544;50.872;4.348;2022-08-07T05:22:16;16.00;93.40
63409;DHT22;49544;50.872;4.348;2022-08-07T05:24:49;16.00;93.50
63409;DHT22;49544;50.872;4.348;2022-08-07T05:27:27;16.10;93.30
63409;DHT22;49544;50.872;4.348;2022-08-07T05:29:54;16.10;93.40
63409;DHT22;49544;50.872;4.348;2022-08-07T05:32:26;16.00;93.40
63409;DHT22;49544;50.872;4.348;2022-08-07T05:34:58;16.10;93.50
63409;DHT22;49544;50.872;4.348;2022-08-07T05:37:25;16.40;93.10
63409;DHT22;49544;50.872;4.348;2022-08-07T05:39:59;16.40;93.00
63409;DHT22;49544;50.872;4.348;2022-08-07T05:42:31;16.50;92.80
63409;DHT22;49544;50.872;4.348;2022-08-07T05:45:01;16.70;92.60
63409;DHT22;49544;50.872;4.348;2022-08-07T05:47:27;16.70;92.50
63409;DHT22;49544;50.872;4.348;2022-08-07T05:49:59;16.80;92.50
63409;DHT22;49544;50.872;4.348;2022-08-07T05:52:31;16.80;92.50
63409;DHT22;49544;50.872;4.348;2022-08-07T05:55:01;16.80;92.20
63409;DHT22;49544;50.872;4.348;2022-08-07T05:57:32;16.60;92.60
63409;DHT22;49544;50.872;4.348;2022-08-07T06:00:03;16.50;92.90
63409;DHT22;49544;50.872;4.348;2022-08-07T06:02:36;16.40;93.10
63409;DHT22;49544;50.872;4.348;2022-08-07T06:05:10;16.20;93.50
63409;DHT22;49544;50.872;4.348;2022-08-07T06:07:42;16.30;93.40
63409;DHT22;49544;50.872;4.348;2022-08-07T06:10:16;16.20;93.50
63409;DHT22;49544;50.872;4.348;2022-08-07T06:12:44;16.30;93.40
63409;DHT22;49544;50.872;4.348;2022-08-07T06:15:14;16.40;93.40
63409;DHT22;49544;50.872;4.348;2022-08-07T06:17:45;16.30;93.40
63409;DHT22;49544;50.872;4.348;2022-08-07T06:20:13;16.20;93.70
63409;DHT22;49544;50.872;4.348;2022-08-07T06:22:46;16.10;93.90
63409;DHT22;49544;50.872;4.348;2022-08-07T06:25:12;16.20;93.80
63409;DHT22;49544;50.872;4.348;2022-08-07T06:27:44;16.30;93.70
63409;DHT22;49544;50.872;4.348;2022-08-07T06:30:18;16.50;93.30
63409;DHT22;49544;50.872;4.348;2022-08-07T06:32:49;16.50;93.20
63409;DHT22;49544;50.872;4.348;2022-08-07T06:35:18;16.50;93.30
63409;DHT22;49544;50.872;4.348;2022-08-07T06:37:48;16.40;93.50
63409;DHT22;49544;50.872;4.348;2022-08-07T06:40:17;16.60;93.10
63409;DHT22;49544;50.872;4.348;2022-08-07T06:42:45;16.60;93.10
63409;DHT22;49544;50.872;4.348;2022-08-07T06:45:17;16.70;92.90
63409;DHT22;49544;50.872;4.348;2022-08-07T06:47:49;16.80;92.60
63409;DHT22;49544;50.872;4.348;2022-08-07T06:50:18;16.90;92.70
63409;DHT22;49544;50.872;4.348;2022-08-07T06:52:55;17.10;92.50
63409;DHT22;49544;50.872;4.348;2022-08-07T06:55:24;17.30;91.90
63409;DHT22;49544;50.872;4.348;2022-08-07T06:57:58;17.20;91.60
63409;DHT22;49544;50.872;4.348;2022-08-07T07:00:27;17.10;91.80
63409;DHT22;49544;50.872;4.348;2022-08-07T07:02:57;17.00;91.90
63409;DHT22;49544;50.872;4.348;2022-08-07T07:05:23;17.00;92.10
63409;DHT22;49544;50.872;4.348;2022-08-07T07:07:55;17.10;92.00
63409;DHT22;49544;50.872;4.348;2022-08-07T07:10:28;17.00;92.00
63409;DHT22;49544;50.872;4.348;2022-08-07T07:13:03;17.10;91.70
63409;DHT22;49544;50.872;4.348;2022-08-07T07:15:43;17.30;91.60
63409;DHT22;49544;50.872;4.348;2022-08-07T07:18:27;17.40;91.30
63409;DHT22;49544;50.872;4.348;2022-08-07T07:21:29;17.60;91.00
63409;DHT22;49544;50.872;4.348;2022-08-07T07:24:00;17.50;91.00
63409;DHT22;49544;50.872;4.348;2022-08-07T07:26:35;17.60;91.10
63409;DHT22;49544;50.872;4.348;2022-08-07T07:29:09;17.70;91.20
63409;DHT22;49544;50.872;4.348;2022-08-07T07:31:45;18.10;90.90
63409;DHT22;49544;50.872;4.348;2022-08-07T07:34:18;18.20;90.50
63409;DHT22;49544;50.872;4.348;2022-08-07T07:36:51;18.10;90.40
63409;DHT22;49544;50.872;4.348;2022-08-07T07:39:24;18.30;90.10
63409;DHT22;49544;50.872;4.348;2022-08-07T07:41:59;18.50;89.10
63409;DHT22;49544;50.872;4.348;2022-08-07T07:44:32;18.70;88.50
63409;DHT22;49544;50.872;4.348;2022-08-07T07:47:04;18.70;88.00
63409;DHT22;49544;50.872;4.348;2022-08-07T07:49:41;18.60;88.00
63409;DHT22;49544;50.872;4.348;2022-08-07T07:52:11;18.60;88.50
63409;DHT22;49544;50.872;4.348;2022-08-07T07:54:45;18.60;87.00
63409;DHT22;49544;50.872;4.348;2022-08-07T07:57:17;18.60;87.20
63409;DHT22;49544;50.872;4.348;2022-08-07T07:59:51;18.60;86.80
63409;DHT22;49544;50.872;4.348;2022-08-07T08:02:21;18.70;87.10
63409;DHT22;49544;50.872;4.348;2022-08-07T08:04:55;18.80;86.90
63409;DHT22;49544;50.872;4.348;2022-08-07T08:07:24;19.00;86.10
63409;DHT22;49544;50.872;4.348;2022-08-07T08:09:54;19.20;85.80
63409;DHT22;49544;50.872;4.348;2022-08-07T08:12:25;19.10;86.50
63409;DHT22;49544;50.872;4.348;2022-08-07T08:14:54;19.20;85.70
63409;DHT22;49544;50.872;4.348;2022-08-07T08:17:42;19.20;83.80
63409;DHT22;49544;50.872;4.348;2022-08-07T08:20:16;19.20;84.40
63409;DHT22;49544;50.872;4.348;2022-08-07T08:22:46;19.30;84.30
63409;DHT22;49544;50.872;4.348;2022-08-07T08:25:33;19.40;84.00
63409;DHT22;49544;50.872;4.348;2022-08-07T08:28:21;19.70;84.20
63409;DHT22;49544;50.872;4.348;2022-08-07T08:30:55;19.70;82.60
63409;DHT22;49544;50.872;4.348;2022-08-07T08:33:26;19.80;83.20
63409;DHT22;49544;50.872;4.348;2022-08-07T08:36:02;19.90;82.10
63409;DHT22;49544;50.872;4.348;2022-08-07T08:38:40;19.70;83.20
63409;DHT22;49544;50.872;4.348;2022-08-07T08:41:28;19.80;83.70
63409;DHT22;49544;50.872;4.348;2022-08-07T08:44:14;19.80;82.80
63409;DHT22;49544;50.872;4.348;2022-08-07T08:47:13;20.00;82.40
63409;DHT22;49544;50.872;4.348;2022-08-07T08:49:46;19.90;81.20
63409;DHT22;49544;50.872;4.348;2022-08-07T08:52:25;19.90;81.00
63409;DHT22;49544;50.872;4.348;2022-08-07T08:55:18;19.80;81.70
63409;DHT22;49544;50.872;4.348;2022-08-07T08:58:02;20.00;81.70
63409;DHT22;49544;50.872;4.348;2022-08-07T09:00:38;20.10;79.60
63409;DHT22;49544;50.872;4.348;2022-08-07T09:03:25;20.10;80.00
63409;DHT22;49544;50.872;4.348;2022-08-07T09:05:57;20.20;78.90
63409;DHT22;49544;50.872;4.348;2022-08-07T09:08:52;20.20;78.60
63409;DHT22;49544;50.872;4.348;2022-08-07T09:11:42;20.10;78.10
63409;DHT22;49544;50.872;4.348;2022-08-07T09:14:26;20.10;79.10
63409;DHT22;49544;50.872;4.348;2022-08-07T09:17:15;20.30;78.50
63409;DHT22;49544;50.872;4.348;2022-08-07T09:19:54;20.30;77.60
63409;DHT22;49544;50.872;4.348;2022-08-07T09:25:44;20.20;77.40
63409;DHT22;49544;50.872;4.348;2022-08-07T09:28:18;20.20;76.70
63409;DHT22;49544;50.872;4.348;2022-08-07T09:31:19;20.30;76.60
63409;DHT22;49544;50.872;4.348;2022-08-07T09:36:37;20.40;75.30
63409;DHT22;49544;50.872;4.348;2022-08-07T09:53:04;21.00;72.40
63409;DHT22;49544;50.872;4.348;2022-08-07T10:01:31;20.90;73.80
63409;DHT22;49544;50.872;4.348;2022-08-07T10:07:10;21.40;73.00
63409;DHT22;49544;50.872;4.348;2022-08-07T10:15:34;21.40;71.80
63409;DHT22;49544;50.872;4.348;2022-08-07T10:21:25;21.30;70.00
63409;DHT22;49544;50.872;4.348;2022-08-07T10:32:35;21.80;68.90
63409;DHT22;49544;50.872;4.348;2022-08-07T10:35:19;21.70;68.20
63409;DHT22;49544;50.872;4.348;2022-08-07T10:38:09;21.70;68.50
63409;DHT22;49544;50.872;4.348;2022-08-07T10:40:46;22.00;67.80
63409;DHT22;49544;50.872;4.348;2022-08-07T10:45:59;22.00;65.40
63409;DHT22;49544;50.872;4.348;2022-08-07T10:51:38;21.80;65.50
63409;DHT22;49544;50.872;4.348;2022-08-07T10:54:39;22.00;66.90
63409;DHT22;49544;50.872;4.348;2022-08-07T11:11:06;22.50;64.20
63409;DHT22;49544;50.872;4.348;2022-08-07T11:16:34;22.50;64.30
63409;DHT22;49544;50.872;4.348;2022-08-07T11:21:46;22.30;63.30
63409;DHT22;49544;50.872;4.348;2022-08-07T11:24:24;22.60;61.70
63409;DHT22;49544;50.872;4.348;2022-08-07T11:30:05;22.00;62.30
63409;DHT22;49544;50.872;4.348;2022-08-07T11:32:42;22.50;63.10
63409;DHT22;49544;50.872;4.348;2022-08-07T11:35:20;22.60;61.80
63409;DHT22;49544;50.872;4.348;2022-08-07T11:40:56;22.40;62.60
63409;DHT22;49544;50.872;4.348;2022-08-07T11:43:43;22.30;62.30
63409;DHT22;49544;50.872;4.348;2022-08-07T11:55:08;22.60;60.40
63409;DHT22;49544;50.872;4.348;2022-08-07T11:58:04;22.60;60.70
63409;DHT22;49544;50.872;4.348;2022-08-07T12:00:53;22.50;59.80
63409;DHT22;49544;50.872;4.348;2022-08-07T12:07:12;22.50;58.90
63409;DHT22;49544;50.872;4.348;2022-08-07T12:10:14;22.70;58.60
63409;DHT22;49544;50.872;4.348;2022-08-07T12:12:58;22.90;59.00
63409;DHT22;49544;50.872;4.348;2022-08-07T12:18:45;23.10;57.10
63409;DHT22;49544;50.872;4.348;2022-08-07T12:24:29;22.60;57.10
63409;DHT22;49544;50.872;4.348;2022-08-07T12:29:37;22.60;59.80
63409;DHT22;49544;50.872;4.348;2022-08-07T12:34:53;22.90;58.90
63409;DHT22;49544;50.872;4.348;2022-08-07T12:37:25;23.00;57.50
63409;DHT22;49544;50.872;4.348;2022-08-07T12:40:00;22.90;57.40
63409;DHT22;49544;50.872;4.348;2022-08-07T12:42:28;23.00;56.80
63409;DHT22;49544;50.872;4.348;2022-08-07T12:44:57;22.90;56.50
63409;DHT22;49544;50.872;4.348;2022-08-07T12:50:28;23.00;56.60
63409;DHT22;49544;50.872;4.348;2022-08-07T12:53:14;23.20;55.90
63409;DHT22;49544;50.872;4.348;2022-08-07T12:56:18;23.30;55.50
63409;DHT22;49544;50.872;4.348;2022-08-07T12:58:53;23.40;57.50
63409;DHT22;49544;50.872;4.348;2022-08-07T13:17:48;23.40;58.90
63409;DHT22;49544;50.872;4.348;2022-08-07T13:20:29;23.50;57.20
63409;DHT22;49544;50.872;4.348;2022-08-07T13:23:09;23.60;57.40
63409;DHT22;49544;50.872;4.348;2022-08-07T13:25:58;23.60;57.60
63409;DHT22;49544;50.872;4.348;2022-08-07T13:28:56;23.40;58.40
63409;DHT22;49544;50.872;4.348;2022-08-07T13:31:35;23.60;58.40
63409;DHT22;49544;50.872;4.348;2022-08-07T13:36:48;23.80;56.90
63409;DHT22;49544;50.872;4.348;2022-08-07T13:42:00;23.70;57.50
63409;DHT22;49544;50.872;4.348;2022-08-07T13:44:33;23.90;56.40
63409;DHT22;49544;50.872;4.348;2022-08-07T13:47:02;23.80;56.60
63409;DHT22;49544;50.872;4.348;2022-08-07T13:49:41;23.80;56.30
63409;DHT22;49544;50.872;4.348;2022-08-07T13:52:08;23.80;55.30
63409;DHT22;49544;50.872;4.348;2022-08-07T13:54:43;23.70;56.70
63409;DHT22;49544;50.872;4.348;2022-08-07T13:57:14;23.80;57.60
63409;DHT22;49544;50.872;4.348;2022-08-07T13:59:45;23.80;56.40
63409;DHT22;49544;50.872;4.348;2022-08-07T14:02:28;23.90;55.70
63409;DHT22;49544;50.872;4.348;2022-08-07T14:05:03;23.90;56.00
63409;DHT22;49544;50.872;4.348;2022-08-07T14:07:33;23.90;56.80
63409;DHT22;49544;50.872;4.348;2022-08-07T14:10:03;24.10;56.30
63409;DHT22;49544;50.872;4.348;2022-08-07T14:12:49;24.00;56.50
63409;DHT22;49544;50.872;4.348;2022-08-07T14:15:38;24.10;56.50
63409;DHT22;49544;50.872;4.348;2022-08-07T14:18:15;24.20;56.00
63409;DHT22;49544;50.872;4.348;2022-08-07T14:20:49;23.90;56.60
63409;DHT22;49544;50.872;4.348;2022-08-07T14:23:35;23.70;57.10
63409;DHT22;49544;50.872;4.348;2022-08-07T14:26:19;23.80;57.00
63409;DHT22;49544;50.872;4.348;2022-08-07T14:28:47;23.80;57.60
63409;DHT22;49544;50.872;4.348;2022-08-07T14:31:17;24.20;57.10
63409;DHT22;49544;50.872;4.348;2022-08-07T14:33:46;24.40;56.50
63409;DHT22;49544;50.872;4.348;2022-08-07T14:36:15;24.20;56.70
63409;DHT22;49544;50.872;4.348;2022-08-07T14:38:45;24.20;57.00
63409;DHT22;49544;50.872;4.348;2022-08-07T14:41:26;24.10;57.20
63409;DHT22;49544;50.872;4.348;2022-08-07T14:43:58;24.00;57.00
63409;DHT22;49544;50.872;4.348;2022-08-07T14:46:33;24.20;57.00
63409;DHT22;49544;50.872;4.348;2022-08-07T14:49:03;24.40;56.10
63409;DHT22;49544;50.872;4.348;2022-08-07T14:51:32;24.20;56.40
63409;DHT22;49544;50.872;4.348;2022-08-07T14:54:05;24.10;56.50
63409;DHT22;49544;50.872;4.348;2022-08-07T14:56:39;24.10;56.80
63409;DHT22;49544;50.872;4.348;2022-08-07T14:59:13;24.20;56.70
63409;DHT22;49544;50.872;4.348;2022-08-07T15:01:42;24.20;56.10
63409;DHT22;49544;50.872;4.348;2022-08-07T15:04:13;24.20;55.60
63409;DHT22;49544;50.872;4.348;2022-08-07T15:06:46;24.10;55.60
63409;DHT22;49544;50.872;4.348;2022-08-07T15:09:24;24.20;55.90
63409;DHT22;49544;50.872;4.348;2022-08-07T15:11:57;24.00;56.40
63409;DHT22;49544;50.872;4.348;2022-08-07T15:14:32;24.10;56.30
63409;DHT22;49544;50.872;4.348;2022-08-07T15:17:08;24.20;56.00
63409;DHT22;49544;50.872;4.348;2022-08-07T15:19:37;24.10;55.90
63409;DHT22;49544;50.872;4.348;2022-08-07T15:22:09;24.10;56.10
63409;DHT22;49544;50.872;4.348;2022-08-07T15:24:39;24.20;55.50
63409;DHT22;49544;50.872;4.348;2022-08-07T15:27:14;24.10;55.50
63409;DHT22;49544;50.872;4.348;2022-08-07T15:29:45;24.10;55.50
63409;DHT22;49544;50.872;4.348;2022-08-07T15:32:17;24.20;55.00
63409;DHT22;49544;50.872;4.348;2022-08-07T15:34:54;24.30;54.90
63409;DHT22;49544;50.872;4.348;2022-08-07T15:37:29;24.30;55.00
63409;DHT22;49544;50.872;4.348;2022-08-07T15:40:02;24.10;54.90
63409;DHT22;49544;50.872;4.348;2022-08-07T15:42:45;24.20;54.90
63409;DHT22;49544;50.872;4.348;2022-08-07T15:48:26;24.30;54.50
63409;DHT22;49544;50.872;4.348;2022-08-07T15:50:59;24.30;54.60
63409;DHT22;49544;50.872;4.348;2022-08-07T15:53:37;24.30;54.60
63409;DHT22;49544;50.872;4.348;2022-08-07T15:56:08;24.40;54.40
63409;DHT22;49544;50.872;4.348;2022-08-07T15:58:53;24.30;54.50
63409;DHT22;49544;50.872;4.348;2022-08-07T16:03:52;24.00;55.30
63409;DHT22;49544;50.872;4.348;2022-08-07T16:06:47;23.90;55.80
63409;DHT22;49544;50.872;4.348;2022-08-07T16:18:07;24.00;55.20
63409;DHT22;49544;50.872;4.348;2022-08-07T16:23:59;24.00;55.80
63409;DHT22;49544;50.872;4.348;2022-08-07T16:26:55;24.00;56.50
63409;DHT22;49544;50.872;4.348;2022-08-07T16:32:16;23.80;57.20
63409;DHT22;49544;50.872;4.348;2022-08-07T16:34:49;23.90;57.10
63409;DHT22;49544;50.872;4.348;2022-08-07T16:52:34;23.70;59.40
63409;DHT22;49544;50.872;4.348;2022-08-07T16:55:34;23.80;59.40
63409;DHT22;49544;50.872;4.348;2022-08-07T16:58:15;23.80;59.50
63409;DHT22;49544;50.872;4.348;2022-08-07T17:17:05;23.40;62.50
63409;DHT22;49544;50.872;4.348;2022-08-07T17:19:45;23.40;62.70
63409;DHT22;49544;50.872;4.348;2022-08-07T17:22:21;23.40;62.80
63409;DHT22;49544;50.872;4.348;2022-08-07T17:25:05;23.60;62.70
63409;DHT22;49544;50.872;4.348;2022-08-07T17:30:23;23.20;63.60
63409;DHT22;49544;50.872;4.348;2022-08-07T17:36:08;23.10;64.10
63409;DHT22;49544;50.872;4.348;2022-08-07T17:38:55;23.30;63.70
63409;DHT22;49544;50.872;4.348;2022-08-07T17:41:58;23.40;63.40
63409;DHT22;49544;50.872;4.348;2022-08-07T17:44:45;23.20;63.80
63409;DHT22;49544;50.872;4.348;2022-08-07T17:50:00;23.00;64.50
63409;DHT22;49544;50.872;4.348;2022-08-07T17:52:59;22.80;64.80
63409;DHT22;49544;50.872;4.348;2022-08-07T17:58:06;22.60;65.70
63409;DHT22;49544;50.872;4.348;2022-08-07T18:00:45;22.60;66.00
63409;DHT22;49544;50.872;4.348;2022-08-07T18:03:42;22.50;66.30
63409;DHT22;49544;50.872;4.348;2022-08-07T18:06:10;22.30;66.70
63409;DHT22;49544;50.872;4.348;2022-08-07T18:11:25;22.30;66.80
63409;DHT22;49544;50.872;4.348;2022-08-07T18:14:03;22.20;67.10
63409;DHT22;49544;50.872;4.348;2022-08-07T18:16:51;22.20;67.20
63409;DHT22;49544;50.872;4.348;2022-08-07T18:19:28;22.20;67.40
63409;DHT22;49544;50.872;4.348;2022-08-07T18:25:16;22.10;67.70
63409;DHT22;49544;50.872;4.348;2022-08-07T18:28:08;22.10;68.00
63409;DHT22;49544;50.872;4.348;2022-08-07T18:31:03;21.90;68.30
63409;DHT22;49544;50.872;4.348;2022-08-07T18:37:05;21.70;69.10
63409;DHT22;49544;50.872;4.348;2022-08-07T18:46:17;21.50;70.20
63409;DHT22;49544;50.872;4.348;2022-08-07T18:49:17;21.50;70.30
63409;DHT22;49544;50.872;4.348;2022-08-07T18:51:57;21.40;70.80
63409;DHT22;49544;50.872;4.348;2022-08-07T18:57:15;21.20;71.60
63409;DHT22;49544;50.872;4.348;2022-08-07T19:00:04;21.20;72.40
63409;DHT22;49544;50.872;4.348;2022-08-07T19:02:45;21.10;72.20
63409;DHT22;49544;50.872;4.348;2022-08-07T19:05:32;21.10;72.40
63409;DHT22;49544;50.872;4.348;2022-08-07T19:08:09;21.10;72.60
63409;DHT22;49544;50.872;4.348;2022-08-07T19:10:45;21.00;72.80
63409;DHT22;49544;50.872;4.348;2022-08-07T19:16:14;20.90;73.20
63409;DHT22;49544;50.872;4.348;2022-08-07T19:21:45;21.00;73.50
63409;DHT22;49544;50.872;4.348;2022-08-07T19:24:42;20.90;73.70
63409;DHT22;49544;50.872;4.348;2022-08-07T19:27:22;20.90;73.90
63409;DHT22;49544;50.872;4.348;2022-08-07T19:29:57;20.80;74.30
63409;DHT22;49544;50.872;4.348;2022-08-07T19:32:32;20.80;74.60
63409;DHT22;49544;50.872;4.348;2022-08-07T19:37:57;20.70;75.10
63409;DHT22;49544;50.872;4.348;2022-08-07T19:40:30;20.70;75.40
63409;DHT22;49544;50.872;4.348;2022-08-07T19:43:11;20.50;75.60
63409;DHT22;49544;50.872;4.348;2022-08-07T19:45:43;20.50;75.80
63409;DHT22;49544;50.872;4.348;2022-08-07T19:48:10;20.40;76.20
63409;DHT22;49544;50.872;4.348;2022-08-07T19:50:43;20.50;76.20
63409;DHT22;49544;50.872;4.348;2022-08-07T19:53:17;20.50;76.30
63409;DHT22;49544;50.872;4.348;2022-08-07T19:55:52;20.40;76.70
63409;DHT22;49544;50.872;4.348;2022-08-07T19:58:27;20.30;77.10
63409;DHT22;49544;50.872;4.348;2022-08-07T20:01:00;20.10;77.50
63409;DHT22;49544;50.872;4.348;2022-08-07T20:03:30;20.20;77.70
63409;DHT22;49544;50.872;4.348;2022-08-07T20:06:00;20.10;77.70
63409;DHT22;49544;50.872;4.348;2022-08-07T20:08:45;20.10;78.00